Saint Libory, Nebraska
Current Conditions -  °F | °C
As of 7:53 PM on Friday 28 Nov 2014 (Local Time) from KGRI Reporting Station
Clear Clear  
Wind Chill: 41°   Ceiling: Unl
Heat Index: 46°   Visibility: 10mi
Dew Point: 23°   Wind: 9mph
Humidity: 40%   Direction: 240°WSW
Pressure: 29.64"   Gusts: NA
Location:  41.08°N, 98.36°W
Report Text: KGRI 290153Z AUTO 24008KT 10SM CLR 08/M05 A2964 RMK AO2 SLP053 T00781050
Loading
Personal Weather Stations






























Interactive Weather Map New forecast layout! Learn more

10-Day Weather Forecast

Advertisements
Track Severe Weather on mobile